sensor_id;sensor_type;location;lat;lon;timestamp;P1;durP1;ratioP1;P2;durP2;ratioP2
43700;SDS011;58809;47.984;7.964;2023-03-01T00:02:13;22.15;;;16.13;;
43700;SDS011;58809;47.984;7.964;2023-03-01T00:05:14;23.42;;;16.80;;
43700;SDS011;58809;47.984;7.964;2023-03-01T00:08:16;25.52;;;17.02;;
43700;SDS011;58809;47.984;7.964;2023-03-01T00:11:21;24.05;;;16.45;;
43700;SDS011;58809;47.984;7.964;2023-03-01T00:14:25;27.35;;;17.45;;
43700;SDS011;58809;47.984;7.964;2023-03-01T00:17:27;24.38;;;17.40;;
43700;SDS011;58809;47.984;7.964;2023-03-01T00:20:28;25.90;;;16.02;;
43700;SDS011;58809;47.984;7.964;2023-03-01T00:23:30;27.48;;;17.02;;
43700;SDS011;58809;47.984;7.964;2023-03-01T00:26:32;26.60;;;16.35;;
43700;SDS011;58809;47.984;7.964;2023-03-01T00:29:34;24.23;;;16.00;;
43700;SDS011;58809;47.984;7.964;2023-03-01T00:32:35;24.25;;;16.38;;
43700;SDS011;58809;47.984;7.964;2023-03-01T00:35:37;24.42;;;17.38;;
43700;SDS011;58809;47.984;7.964;2023-03-01T00:38:41;22.92;;;15.90;;
43700;SDS011;58809;47.984;7.964;2023-03-01T00:41:44;26.48;;;18.30;;
43700;SDS011;58809;47.984;7.964;2023-03-01T00:44:45;31.40;;;18.65;;
43700;SDS011;58809;47.984;7.964;2023-03-01T00:47:47;25.88;;;17.67;;
43700;SDS011;58809;47.984;7.964;2023-03-01T00:50:50;28.13;;;17.58;;
43700;SDS011;58809;47.984;7.964;2023-03-01T00:53:52;26.58;;;17.40;;
43700;SDS011;58809;47.984;7.964;2023-03-01T00:56:56;24.60;;;17.80;;
43700;SDS011;58809;47.984;7.964;2023-03-01T00:59:57;25.45;;;17.83;;
43700;SDS011;58809;47.984;7.964;2023-03-01T01:02:59;24.52;;;17.38;;
43700;SDS011;58809;47.984;7.964;2023-03-01T01:06:01;25.20;;;17.17;;
43700;SDS011;58809;47.984;7.964;2023-03-01T01:09:11;26.25;;;17.42;;
43700;SDS011;58809;47.984;7.964;2023-03-01T01:12:18;26.08;;;17.40;;
43700;SDS011;58809;47.984;7.964;2023-03-01T01:15:19;29.85;;;18.15;;
43700;SDS011;58809;47.984;7.964;2023-03-01T01:18:21;25.58;;;17.75;;
43700;SDS011;58809;47.984;7.964;2023-03-01T01:21:23;25.88;;;16.65;;
43700;SDS011;58809;47.984;7.964;2023-03-01T01:24:25;30.03;;;19.70;;
43700;SDS011;58809;47.984;7.964;2023-03-01T01:27:27;27.98;;;17.73;;
43700;SDS011;58809;47.984;7.964;2023-03-01T01:30:28;29.40;;;18.95;;
43700;SDS011;58809;47.984;7.964;2023-03-01T01:33:30;30.00;;;18.83;;
43700;SDS011;58809;47.984;7.964;2023-03-01T01:36:33;29.02;;;18.77;;
43700;SDS011;58809;47.984;7.964;2023-03-01T01:39:35;28.83;;;20.13;;
43700;SDS011;58809;47.984;7.964;2023-03-01T01:42:37;27.77;;;19.05;;
43700;SDS011;58809;47.984;7.964;2023-03-01T01:45:38;29.15;;;19.83;;
43700;SDS011;58809;47.984;7.964;2023-03-01T01:48:45;28.50;;;19.15;;
43700;SDS011;58809;47.984;7.964;2023-03-01T01:51:50;28.52;;;19.02;;
43700;SDS011;58809;47.984;7.964;2023-03-01T01:55:02;29.75;;;20.08;;
43700;SDS011;58809;47.984;7.964;2023-03-01T01:58:07;29.25;;;19.63;;
43700;SDS011;58809;47.984;7.964;2023-03-01T02:01:12;27.33;;;18.98;;
43700;SDS011;58809;47.984;7.964;2023-03-01T02:04:13;29.42;;;20.23;;
43700;SDS011;58809;47.984;7.964;2023-03-01T02:07:16;28.58;;;18.35;;
43700;SDS011;58809;47.984;7.964;2023-03-01T02:10:22;28.98;;;19.33;;
43700;SDS011;58809;47.984;7.964;2023-03-01T02:13:25;28.05;;;19.83;;
43700;SDS011;58809;47.984;7.964;2023-03-01T02:16:28;28.67;;;19.88;;
43700;SDS011;58809;47.984;7.964;2023-03-01T02:19:36;29.75;;;20.17;;
43700;SDS011;58809;47.984;7.964;2023-03-01T02:22:46;28.80;;;19.92;;
43700;SDS011;58809;47.984;7.964;2023-03-01T02:25:52;33.22;;;21.42;;
43700;SDS011;58809;47.984;7.964;2023-03-01T02:28:59;31.30;;;21.52;;
43700;SDS011;58809;47.984;7.964;2023-03-01T02:32:01;30.27;;;20.10;;
43700;SDS011;58809;47.984;7.964;2023-03-01T02:35:05;27.88;;;19.42;;
43700;SDS011;58809;47.984;7.964;2023-03-01T02:38:07;29.15;;;19.98;;
43700;SDS011;58809;47.984;7.964;2023-03-01T02:41:10;31.45;;;20.63;;
43700;SDS011;58809;47.984;7.964;2023-03-01T02:44:16;31.55;;;20.88;;
43700;SDS011;58809;47.984;7.964;2023-03-01T02:47:18;29.98;;;21.00;;
43700;SDS011;58809;47.984;7.964;2023-03-01T02:56:40;27.75;;;19.40;;
43700;SDS011;58809;47.984;7.964;2023-03-01T02:59:44;31.80;;;21.30;;
43700;SDS011;58809;47.984;7.964;2023-03-01T03:02:46;30.02;;;20.85;;
43700;SDS011;58809;47.984;7.964;2023-03-01T03:05:55;28.88;;;20.25;;
43700;SDS011;58809;47.984;7.964;2023-03-01T03:08:57;28.70;;;19.77;;
43700;SDS011;58809;47.984;7.964;2023-03-01T03:11:59;34.75;;;21.52;;
43700;SDS011;58809;47.984;7.964;2023-03-01T03:15:01;29.17;;;20.13;;
43700;SDS011;58809;47.984;7.964;2023-03-01T03:18:03;28.70;;;19.38;;
43700;SDS011;58809;47.984;7.964;2023-03-01T03:21:08;28.95;;;19.92;;
43700;SDS011;58809;47.984;7.964;2023-03-01T03:24:13;29.45;;;19.92;;
43700;SDS011;58809;47.984;7.964;2023-03-01T03:27:15;29.35;;;20.23;;
43700;SDS011;58809;47.984;7.964;2023-03-01T03:30:18;28.15;;;20.30;;
43700;SDS011;58809;47.984;7.964;2023-03-01T03:33:20;29.95;;;20.75;;
43700;SDS011;58809;47.984;7.964;2023-03-01T03:36:22;31.98;;;21.55;;
43700;SDS011;58809;47.984;7.964;2023-03-01T03:39:25;30.58;;;20.05;;
43700;SDS011;58809;47.984;7.964;2023-03-01T03:42:28;31.38;;;20.77;;
43700;SDS011;58809;47.984;7.964;2023-03-01T03:45:30;33.60;;;21.38;;
43700;SDS011;58809;47.984;7.964;2023-03-01T03:48:35;31.23;;;21.08;;
43700;SDS011;58809;47.984;7.964;2023-03-01T03:54:40;30.45;;;20.73;;
43700;SDS011;58809;47.984;7.964;2023-03-01T03:57:42;30.38;;;19.85;;
43700;SDS011;58809;47.984;7.964;2023-03-01T04:00:44;33.55;;;22.38;;
43700;SDS011;58809;47.984;7.964;2023-03-01T04:03:45;29.98;;;20.52;;
43700;SDS011;58809;47.984;7.964;2023-03-01T04:06:55;29.13;;;20.17;;
43700;SDS011;58809;47.984;7.964;2023-03-01T04:09:56;31.30;;;20.80;;
43700;SDS011;58809;47.984;7.964;2023-03-01T04:12:58;30.77;;;21.13;;
43700;SDS011;58809;47.984;7.964;2023-03-01T04:15:59;27.73;;;19.35;;
43700;SDS011;58809;47.984;7.964;2023-03-01T04:19:01;25.35;;;19.40;;
43700;SDS011;58809;47.984;7.964;2023-03-01T04:22:03;28.38;;;19.98;;
43700;SDS011;58809;47.984;7.964;2023-03-01T04:25:10;32.38;;;21.40;;
43700;SDS011;58809;47.984;7.964;2023-03-01T04:28:15;29.75;;;19.92;;
43700;SDS011;58809;47.984;7.964;2023-03-01T04:31:18;28.85;;;19.63;;
43700;SDS011;58809;47.984;7.964;2023-03-01T04:34:22;30.45;;;20.17;;
43700;SDS011;58809;47.984;7.964;2023-03-01T04:37:24;32.88;;;20.65;;
43700;SDS011;58809;47.984;7.964;2023-03-01T04:40:26;31.90;;;21.00;;
43700;SDS011;58809;47.984;7.964;2023-03-01T04:43:28;32.80;;;20.42;;
43700;SDS011;58809;47.984;7.964;2023-03-01T04:46:30;31.13;;;20.38;;
43700;SDS011;58809;47.984;7.964;2023-03-01T04:49:32;31.52;;;21.33;;
43700;SDS011;58809;47.984;7.964;2023-03-01T04:52:33;36.20;;;22.45;;
43700;SDS011;58809;47.984;7.964;2023-03-01T04:55:35;32.13;;;20.60;;
43700;SDS011;58809;47.984;7.964;2023-03-01T04:58:37;31.30;;;21.83;;
43700;SDS011;58809;47.984;7.964;2023-03-01T05:01:38;32.70;;;22.67;;
43700;SDS011;58809;47.984;7.964;2023-03-01T05:04:40;32.63;;;22.67;;
43700;SDS011;58809;47.984;7.964;2023-03-01T05:07:41;32.63;;;23.63;;
43700;SDS011;58809;47.984;7.964;2023-03-01T05:10:44;35.25;;;22.70;;
43700;SDS011;58809;47.984;7.964;2023-03-01T05:16:51;32.83;;;22.73;;
43700;SDS011;58809;47.984;7.964;2023-03-01T05:19:52;36.88;;;22.30;;
43700;SDS011;58809;47.984;7.964;2023-03-01T05:22:57;33.50;;;22.25;;
43700;SDS011;58809;47.984;7.964;2023-03-01T05:26:01;35.25;;;22.27;;
43700;SDS011;58809;47.984;7.964;2023-03-01T05:29:06;32.08;;;22.25;;
43700;SDS011;58809;47.984;7.964;2023-03-01T05:32:09;36.77;;;23.10;;
43700;SDS011;58809;47.984;7.964;2023-03-01T05:35:16;34.65;;;22.95;;
43700;SDS011;58809;47.984;7.964;2023-03-01T05:38:19;33.47;;;22.20;;
43700;SDS011;58809;47.984;7.964;2023-03-01T05:41:21;31.92;;;22.23;;
43700;SDS011;58809;47.984;7.964;2023-03-01T05:44:23;32.65;;;21.35;;
43700;SDS011;58809;47.984;7.964;2023-03-01T05:47:25;32.38;;;21.42;;
43700;SDS011;58809;47.984;7.964;2023-03-01T05:50:27;34.65;;;22.13;;
43700;SDS011;58809;47.984;7.964;2023-03-01T05:56:33;32.97;;;20.92;;
43700;SDS011;58809;47.984;7.964;2023-03-01T05:59:35;35.33;;;23.58;;
43700;SDS011;58809;47.984;7.964;2023-03-01T06:02:36;32.70;;;21.60;;
43700;SDS011;58809;47.984;7.964;2023-03-01T06:05:39;31.98;;;22.58;;
43700;SDS011;58809;47.984;7.964;2023-03-01T06:08:41;33.05;;;22.17;;
43700;SDS011;58809;47.984;7.964;2023-03-01T06:11:42;31.20;;;21.35;;
43700;SDS011;58809;47.984;7.964;2023-03-01T06:14:45;30.30;;;21.40;;
43700;SDS011;58809;47.984;7.964;2023-03-01T06:17:48;29.98;;;20.42;;
43700;SDS011;58809;47.984;7.964;2023-03-01T06:20:54;33.75;;;22.73;;
43700;SDS011;58809;47.984;7.964;2023-03-01T06:23:56;30.35;;;20.15;;
43700;SDS011;58809;47.984;7.964;2023-03-01T06:26:57;34.15;;;22.35;;
43700;SDS011;58809;47.984;7.964;2023-03-01T06:29:59;32.95;;;20.92;;
43700;SDS011;58809;47.984;7.964;2023-03-01T06:33:00;34.38;;;21.63;;
43700;SDS011;58809;47.984;7.964;2023-03-01T06:36:03;32.28;;;21.90;;
43700;SDS011;58809;47.984;7.964;2023-03-01T06:39:05;30.33;;;20.98;;
43700;SDS011;58809;47.984;7.964;2023-03-01T06:42:07;33.50;;;21.20;;
43700;SDS011;58809;47.984;7.964;2023-03-01T06:45:11;30.08;;;21.17;;
43700;SDS011;58809;47.984;7.964;2023-03-01T06:48:12;33.75;;;22.00;;
43700;SDS011;58809;47.984;7.964;2023-03-01T06:51:14;34.42;;;22.27;;
43700;SDS011;58809;47.984;7.964;2023-03-01T06:54:15;30.33;;;20.90;;
43700;SDS011;58809;47.984;7.964;2023-03-01T06:57:18;31.67;;;20.77;;
43700;SDS011;58809;47.984;7.964;2023-03-01T07:00:20;31.52;;;20.92;;
43700;SDS011;58809;47.984;7.964;2023-03-01T07:03:22;29.52;;;20.73;;
43700;SDS011;58809;47.984;7.964;2023-03-01T07:06:24;31.13;;;23.10;;
43700;SDS011;58809;47.984;7.964;2023-03-01T07:09:25;32.30;;;22.02;;
43700;SDS011;58809;47.984;7.964;2023-03-01T07:12:27;30.23;;;21.92;;
43700;SDS011;58809;47.984;7.964;2023-03-01T07:15:28;31.83;;;20.98;;
43700;SDS011;58809;47.984;7.964;2023-03-01T07:18:30;31.25;;;21.02;;
43700;SDS011;58809;47.984;7.964;2023-03-01T07:21:31;41.28;;;22.85;;
43700;SDS011;58809;47.984;7.964;2023-03-01T07:24:33;33.13;;;21.23;;
43700;SDS011;58809;47.984;7.964;2023-03-01T07:27:35;29.65;;;19.90;;
43700;SDS011;58809;47.984;7.964;2023-03-01T07:30:37;30.50;;;21.35;;
43700;SDS011;58809;47.984;7.964;2023-03-01T07:33:38;28.98;;;20.77;;
43700;SDS011;58809;47.984;7.964;2023-03-01T07:36:40;31.90;;;21.13;;
43700;SDS011;58809;47.984;7.964;2023-03-01T07:39:44;34.47;;;21.55;;
43700;SDS011;58809;47.984;7.964;2023-03-01T07:42:45;30.92;;;21.02;;
43700;SDS011;58809;47.984;7.964;2023-03-01T07:45:47;30.90;;;20.83;;
43700;SDS011;58809;47.984;7.964;2023-03-01T07:48:56;30.05;;;21.33;;
43700;SDS011;58809;47.984;7.964;2023-03-01T07:51:59;28.38;;;20.92;;
43700;SDS011;58809;47.984;7.964;2023-03-01T07:55:00;34.58;;;21.95;;
43700;SDS011;58809;47.984;7.964;2023-03-01T07:58:02;30.40;;;21.50;;
43700;SDS011;58809;47.984;7.964;2023-03-01T08:01:05;32.88;;;20.70;;
43700;SDS011;58809;47.984;7.964;2023-03-01T08:07:09;32.72;;;19.95;;
43700;SDS011;58809;47.984;7.964;2023-03-01T08:10:11;25.70;;;18.67;;
43700;SDS011;58809;47.984;7.964;2023-03-01T08:13:12;33.05;;;20.83;;
43700;SDS011;58809;47.984;7.964;2023-03-01T08:16:15;28.98;;;20.90;;
43700;SDS011;58809;47.984;7.964;2023-03-01T08:19:17;24.75;;;18.02;;
43700;SDS011;58809;47.984;7.964;2023-03-01T08:22:19;27.50;;;19.27;;
43700;SDS011;58809;47.984;7.964;2023-03-01T08:25:20;27.23;;;19.25;;
43700;SDS011;58809;47.984;7.964;2023-03-01T08:28:22;25.60;;;19.70;;
43700;SDS011;58809;47.984;7.964;2023-03-01T08:34:30;30.85;;;19.85;;
43700;SDS011;58809;47.984;7.964;2023-03-01T08:37:32;37.22;;;19.35;;
43700;SDS011;58809;47.984;7.964;2023-03-01T08:40:34;27.80;;;19.13;;
43700;SDS011;58809;47.984;7.964;2023-03-01T08:43:35;27.38;;;19.13;;
43700;SDS011;58809;47.984;7.964;2023-03-01T08:46:38;35.50;;;20.55;;
43700;SDS011;58809;47.984;7.964;2023-03-01T08:49:41;29.30;;;20.02;;
43700;SDS011;58809;47.984;7.964;2023-03-01T08:52:43;28.20;;;19.67;;
43700;SDS011;58809;47.984;7.964;2023-03-01T08:55:44;31.05;;;20.90;;
43700;SDS011;58809;47.984;7.964;2023-03-01T08:58:47;26.50;;;19.10;;
43700;SDS011;58809;47.984;7.964;2023-03-01T09:01:49;25.97;;;18.13;;
43700;SDS011;58809;47.984;7.964;2023-03-01T09:04:51;28.25;;;19.05;;
43700;SDS011;58809;47.984;7.964;2023-03-01T09:07:52;31.15;;;20.00;;
43700;SDS011;58809;47.984;7.964;2023-03-01T09:10:54;24.55;;;17.02;;
43700;SDS011;58809;47.984;7.964;2023-03-01T09:13:56;29.77;;;18.38;;
43700;SDS011;58809;47.984;7.964;2023-03-01T09:16:57;23.27;;;17.73;;
43700;SDS011;58809;47.984;7.964;2023-03-01T09:19:59;24.08;;;17.10;;
43700;SDS011;58809;47.984;7.964;2023-03-01T09:23:00;26.48;;;18.65;;
43700;SDS011;58809;47.984;7.964;2023-03-01T09:26:02;28.13;;;17.45;;
43700;SDS011;58809;47.984;7.964;2023-03-01T09:29:04;28.45;;;19.27;;
43700;SDS011;58809;47.984;7.964;2023-03-01T09:32:06;28.83;;;18.42;;
43700;SDS011;58809;47.984;7.964;2023-03-01T09:35:09;24.27;;;17.97;;
43700;SDS011;58809;47.984;7.964;2023-03-01T09:38:10;26.52;;;18.05;;
43700;SDS011;58809;47.984;7.964;2023-03-01T09:47:46;23.08;;;17.52;;
43700;SDS011;58809;47.984;7.964;2023-03-01T09:50:49;32.72;;;18.00;;
43700;SDS011;58809;47.984;7.964;2023-03-01T09:53:52;21.88;;;16.23;;
43700;SDS011;58809;47.984;7.964;2023-03-01T09:57:05;26.60;;;17.27;;
43700;SDS011;58809;47.984;7.964;2023-03-01T10:10:20;37.92;;;19.65;;
43700;SDS011;58809;47.984;7.964;2023-03-01T10:13:33;25.42;;;17.75;;
43700;SDS011;58809;47.984;7.964;2023-03-01T10:16:42;23.88;;;18.60;;
43700;SDS011;58809;47.984;7.964;2023-03-01T10:19:49;28.35;;;19.08;;
43700;SDS011;58809;47.984;7.964;2023-03-01T10:22:51;25.80;;;18.58;;
43700;SDS011;58809;47.984;7.964;2023-03-01T10:29:08;25.38;;;18.45;;
43700;SDS011;58809;47.984;7.964;2023-03-01T10:32:11;22.63;;;18.13;;
43700;SDS011;58809;47.984;7.964;2023-03-01T10:38:23;22.25;;;17.80;;
43700;SDS011;58809;47.984;7.964;2023-03-01T10:41:27;23.52;;;18.33;;
43700;SDS011;58809;47.984;7.964;2023-03-01T10:44:37;23.23;;;17.05;;
43700;SDS011;58809;47.984;7.964;2023-03-01T10:47:40;24.65;;;17.70;;
43700;SDS011;58809;47.984;7.964;2023-03-01T10:50:43;24.63;;;17.95;;
43700;SDS011;58809;47.984;7.964;2023-03-01T10:53:49;25.40;;;18.67;;
43700;SDS011;58809;47.984;7.964;2023-03-01T10:56:54;24.52;;;18.23;;
43700;SDS011;58809;47.984;7.964;2023-03-01T11:00:45;24.85;;;18.75;;
43700;SDS011;58809;47.984;7.964;2023-03-01T11:03:36;28.08;;;19.50;;
43700;SDS011;58809;47.984;7.964;2023-03-01T11:06:39;22.95;;;18.35;;
43700;SDS011;58809;47.984;7.964;2023-03-01T11:09:42;30.83;;;19.17;;
43700;SDS011;58809;47.984;7.964;2023-03-01T11:12:43;28.63;;;19.33;;
43700;SDS011;58809;47.984;7.964;2023-03-01T11:16:07;26.10;;;19.10;;
43700;SDS011;58809;47.984;7.964;2023-03-01T11:22:14;26.35;;;20.00;;
43700;SDS011;58809;47.984;7.964;2023-03-01T11:25:25;27.30;;;19.42;;
43700;SDS011;58809;47.984;7.964;2023-03-01T11:28:29;25.05;;;18.33;;
43700;SDS011;58809;47.984;7.964;2023-03-01T11:31:31;25.10;;;18.98;;
43700;SDS011;58809;47.984;7.964;2023-03-01T11:34:47;26.17;;;18.45;;
43700;SDS011;58809;47.984;7.964;2023-03-01T11:41:16;25.63;;;17.17;;
43700;SDS011;58809;47.984;7.964;2023-03-01T11:44:22;24.20;;;17.55;;
43700;SDS011;58809;47.984;7.964;2023-03-01T11:47:33;23.42;;;17.77;;
43700;SDS011;58809;47.984;7.964;2023-03-01T11:50:47;23.33;;;17.85;;
43700;SDS011;58809;47.984;7.964;2023-03-01T11:54:06;21.70;;;17.05;;
43700;SDS011;58809;47.984;7.964;2023-03-01T12:34:51;21.48;;;17.10;;
43700;SDS011;58809;47.984;7.964;2023-03-01T12:44:46;22.48;;;16.45;;
43700;SDS011;58809;47.984;7.964;2023-03-01T12:51:01;22.17;;;18.90;;
43700;SDS011;58809;47.984;7.964;2023-03-01T12:54:11;24.35;;;17.65;;
43700;SDS011;58809;47.984;7.964;2023-03-01T13:11:05;23.80;;;18.40;;
43700;SDS011;58809;47.984;7.964;2023-03-01T13:17:30;25.70;;;19.13;;
43700;SDS011;58809;47.984;7.964;2023-03-01T13:20:44;27.20;;;19.80;;
43700;SDS011;58809;47.984;7.964;2023-03-01T13:23:48;27.00;;;19.27;;
43700;SDS011;58809;47.984;7.964;2023-03-01T13:33:40;25.17;;;18.65;;
43700;SDS011;58809;47.984;7.964;2023-03-01T13:36:48;25.63;;;18.45;;
43700;SDS011;58809;47.984;7.964;2023-03-01T13:39:50;30.88;;;19.30;;
43700;SDS011;58809;47.984;7.964;2023-03-01T13:42:53;22.70;;;18.02;;
43700;SDS011;58809;47.984;7.964;2023-03-01T13:46:16;22.02;;;17.35;;
43700;SDS011;58809;47.984;7.964;2023-03-01T13:49:22;24.35;;;18.52;;
43700;SDS011;58809;47.984;7.964;2023-03-01T13:52:42;23.70;;;18.30;;
43700;SDS011;58809;47.984;7.964;2023-03-01T13:55:50;24.52;;;18.67;;
43700;SDS011;58809;47.984;7.964;2023-03-01T14:01:59;25.08;;;18.67;;
43700;SDS011;58809;47.984;7.964;2023-03-01T14:05:02;24.67;;;18.70;;
43700;SDS011;58809;47.984;7.964;2023-03-01T14:08:04;25.35;;;19.10;;
43700;SDS011;58809;47.984;7.964;2023-03-01T14:14:34;25.00;;;18.70;;
43700;SDS011;58809;47.984;7.964;2023-03-01T14:17:44;24.13;;;18.35;;
43700;SDS011;58809;47.984;7.964;2023-03-01T14:20:54;22.85;;;17.88;;
43700;SDS011;58809;47.984;7.964;2023-03-01T14:23:56;21.67;;;18.05;;
43700;SDS011;58809;47.984;7.964;2023-03-01T14:27:00;26.65;;;20.17;;
43700;SDS011;58809;47.984;7.964;2023-03-01T14:30:03;22.13;;;18.77;;
43700;SDS011;58809;47.984;7.964;2023-03-01T14:33:22;26.73;;;19.40;;
43700;SDS011;58809;47.984;7.964;2023-03-01T14:36:26;27.23;;;20.75;;
43700;SDS011;58809;47.984;7.964;2023-03-01T14:39:31;25.65;;;19.60;;
43700;SDS011;58809;47.984;7.964;2023-03-01T14:42:34;22.02;;;17.88;;
43700;SDS011;58809;47.984;7.964;2023-03-01T14:45:37;23.63;;;18.48;;
43700;SDS011;58809;47.984;7.964;2023-03-01T14:48:38;23.77;;;17.98;;
43700;SDS011;58809;47.984;7.964;2023-03-01T14:51:41;25.08;;;18.90;;
43700;SDS011;58809;47.984;7.964;2023-03-01T14:54:48;23.75;;;19.38;;
43700;SDS011;58809;47.984;7.964;2023-03-01T14:57:53;21.80;;;18.90;;
43700;SDS011;58809;47.984;7.964;2023-03-01T15:00:56;23.80;;;18.77;;
43700;SDS011;58809;47.984;7.964;2023-03-01T15:04:00;23.77;;;18.80;;
43700;SDS011;58809;47.984;7.964;2023-03-01T15:07:03;23.52;;;17.60;;
43700;SDS011;58809;47.984;7.964;2023-03-01T15:10:07;24.45;;;19.20;;
43700;SDS011;58809;47.984;7.964;2023-03-01T15:13:22;21.63;;;17.50;;
43700;SDS011;58809;47.984;7.964;2023-03-01T15:16:27;23.17;;;17.83;;
43700;SDS011;58809;47.984;7.964;2023-03-01T15:19:31;20.92;;;17.77;;
43700;SDS011;58809;47.984;7.964;2023-03-01T15:22:33;23.33;;;18.10;;
43700;SDS011;58809;47.984;7.964;2023-03-01T15:25:36;26.45;;;17.98;;
43700;SDS011;58809;47.984;7.964;2023-03-01T15:28:40;23.23;;;18.08;;
43700;SDS011;58809;47.984;7.964;2023-03-01T15:31:53;26.05;;;18.38;;
43700;SDS011;58809;47.984;7.964;2023-03-01T15:34:57;22.42;;;18.45;;
43700;SDS011;58809;47.984;7.964;2023-03-01T15:38:00;26.38;;;18.45;;
43700;SDS011;58809;47.984;7.964;2023-03-01T15:41:04;24.02;;;18.02;;
43700;SDS011;58809;47.984;7.964;2023-03-01T15:44:26;24.15;;;18.40;;
43700;SDS011;58809;47.984;7.964;2023-03-01T15:47:47;24.55;;;19.13;;
43700;SDS011;58809;47.984;7.964;2023-03-01T15:50:58;24.80;;;18.45;;
43700;SDS011;58809;47.984;7.964;2023-03-01T15:54:05;23.65;;;19.40;;
43700;SDS011;58809;47.984;7.964;2023-03-01T15:57:12;27.20;;;18.52;;
43700;SDS011;58809;47.984;7.964;2023-03-01T16:03:18;28.38;;;18.92;;
43700;SDS011;58809;47.984;7.964;2023-03-01T16:06:22;23.75;;;18.55;;
43700;SDS011;58809;47.984;7.964;2023-03-01T16:09:24;22.95;;;19.63;;
43700;SDS011;58809;47.984;7.964;2023-03-01T16:12:26;27.00;;;19.67;;
43700;SDS011;58809;47.984;7.964;2023-03-01T16:15:32;28.08;;;22.45;;
43700;SDS011;58809;47.984;7.964;2023-03-01T16:18:37;31.42;;;21.98;;
43700;SDS011;58809;47.984;7.964;2023-03-01T16:21:40;32.08;;;24.58;;
43700;SDS011;58809;47.984;7.964;2023-03-01T16:24:50;33.05;;;24.95;;
43700;SDS011;58809;47.984;7.964;2023-03-01T16:28:02;34.75;;;25.95;;
43700;SDS011;58809;47.984;7.964;2023-03-01T16:31:11;32.47;;;25.10;;
43700;SDS011;58809;47.984;7.964;2023-03-01T16:34:13;36.10;;;26.30;;
43700;SDS011;58809;47.984;7.964;2023-03-01T16:37:15;37.22;;;27.83;;
43700;SDS011;58809;47.984;7.964;2023-03-01T16:40:18;37.08;;;27.38;;
43700;SDS011;58809;47.984;7.964;2023-03-01T16:43:25;33.55;;;25.90;;
43700;SDS011;58809;47.984;7.964;2023-03-01T16:46:27;36.45;;;26.08;;
43700;SDS011;58809;47.984;7.964;2023-03-01T16:49:30;37.17;;;25.65;;
43700;SDS011;58809;47.984;7.964;2023-03-01T16:52:31;34.78;;;25.75;;
43700;SDS011;58809;47.984;7.964;2023-03-01T16:55:35;32.75;;;25.23;;
43700;SDS011;58809;47.984;7.964;2023-03-01T16:58:37;35.83;;;26.40;;
43700;SDS011;58809;47.984;7.964;2023-03-01T17:01:40;36.83;;;25.83;;
43700;SDS011;58809;47.984;7.964;2023-03-01T17:04:42;38.75;;;27.48;;
43700;SDS011;58809;47.984;7.964;2023-03-01T17:07:44;41.45;;;27.83;;
43700;SDS011;58809;47.984;7.964;2023-03-01T17:10:45;38.92;;;27.15;;
43700;SDS011;58809;47.984;7.964;2023-03-01T17:13:47;40.83;;;28.48;;
43700;SDS011;58809;47.984;7.964;2023-03-01T17:16:49;38.40;;;26.63;;
43700;SDS011;58809;47.984;7.964;2023-03-01T17:19:50;34.15;;;26.73;;
43700;SDS011;58809;47.984;7.964;2023-03-01T17:22:52;41.60;;;27.40;;
43700;SDS011;58809;47.984;7.964;2023-03-01T17:25:53;39.33;;;27.63;;
43700;SDS011;58809;47.984;7.964;2023-03-01T17:28:56;37.92;;;26.23;;
43700;SDS011;58809;47.984;7.964;2023-03-01T17:31:59;39.77;;;26.77;;
43700;SDS011;58809;47.984;7.964;2023-03-01T17:35:01;39.70;;;27.80;;
43700;SDS011;58809;47.984;7.964;2023-03-01T17:38:03;37.97;;;27.88;;
43700;SDS011;58809;47.984;7.964;2023-03-01T17:41:05;43.45;;;32.25;;
43700;SDS011;58809;47.984;7.964;2023-03-01T17:44:07;40.67;;;27.92;;
43700;SDS011;58809;47.984;7.964;2023-03-01T17:47:09;38.90;;;29.02;;
43700;SDS011;58809;47.984;7.964;2023-03-01T17:50:11;60.47;;;39.40;;
43700;SDS011;58809;47.984;7.964;2023-03-01T17:53:12;38.20;;;28.73;;
43700;SDS011;58809;47.984;7.964;2023-03-01T17:56:16;40.58;;;32.58;;
43700;SDS011;58809;47.984;7.964;2023-03-01T17:59:17;65.40;;;47.45;;
43700;SDS011;58809;47.984;7.964;2023-03-01T18:02:19;42.03;;;30.77;;
43700;SDS011;58809;47.984;7.964;2023-03-01T18:05:21;38.97;;;27.73;;
43700;SDS011;58809;47.984;7.964;2023-03-01T18:08:22;40.80;;;29.08;;
43700;SDS011;58809;47.984;7.964;2023-03-01T18:11:24;37.70;;;28.65;;
43700;SDS011;58809;47.984;7.964;2023-03-01T18:14:26;39.53;;;29.00;;
43700;SDS011;58809;47.984;7.964;2023-03-01T18:17:30;39.35;;;29.23;;
43700;SDS011;58809;47.984;7.964;2023-03-01T18:20:31;49.53;;;34.63;;
43700;SDS011;58809;47.984;7.964;2023-03-01T18:23:34;42.42;;;31.55;;
43700;SDS011;58809;47.984;7.964;2023-03-01T18:26:37;42.53;;;30.63;;
43700;SDS011;58809;47.984;7.964;2023-03-01T18:29:40;38.95;;;27.85;;
43700;SDS011;58809;47.984;7.964;2023-03-01T18:32:41;36.65;;;25.90;;
43700;SDS011;58809;47.984;7.964;2023-03-01T18:35:45;34.45;;;25.17;;
43700;SDS011;58809;47.984;7.964;2023-03-01T18:38:46;31.45;;;24.42;;
43700;SDS011;58809;47.984;7.964;2023-03-01T18:41:49;33.42;;;25.75;;
43700;SDS011;58809;47.984;7.964;2023-03-01T18:44:50;35.88;;;26.13;;
43700;SDS011;58809;47.984;7.964;2023-03-01T18:47:54;39.17;;;29.67;;
43700;SDS011;58809;47.984;7.964;2023-03-01T18:50:56;40.90;;;31.58;;
43700;SDS011;58809;47.984;7.964;2023-03-01T18:53:58;43.83;;;30.70;;
43700;SDS011;58809;47.984;7.964;2023-03-01T18:56:59;35.90;;;26.33;;
43700;SDS011;58809;47.984;7.964;2023-03-01T19:00:02;38.97;;;28.60;;
43700;SDS011;58809;47.984;7.964;2023-03-01T19:03:04;41.83;;;31.23;;
43700;SDS011;58809;47.984;7.964;2023-03-01T19:06:06;39.15;;;29.92;;
43700;SDS011;58809;47.984;7.964;2023-03-01T19:09:07;37.97;;;26.35;;
43700;SDS011;58809;47.984;7.964;2023-03-01T19:12:09;36.60;;;28.50;;
43700;SDS011;58809;47.984;7.964;2023-03-01T19:15:11;40.33;;;30.10;;
43700;SDS011;58809;47.984;7.964;2023-03-01T19:18:13;44.42;;;31.42;;
43700;SDS011;58809;47.984;7.964;2023-03-01T19:21:19;40.60;;;29.73;;
43700;SDS011;58809;47.984;7.964;2023-03-01T19:24:22;41.17;;;28.63;;
43700;SDS011;58809;47.984;7.964;2023-03-01T19:27:23;36.22;;;25.63;;
43700;SDS011;58809;47.984;7.964;2023-03-01T19:30:25;38.05;;;27.08;;
43700;SDS011;58809;47.984;7.964;2023-03-01T19:33:28;34.90;;;27.52;;
43700;SDS011;58809;47.984;7.964;2023-03-01T19:36:30;38.58;;;28.65;;
43700;SDS011;58809;47.984;7.964;2023-03-01T19:39:35;38.58;;;26.05;;
43700;SDS011;58809;47.984;7.964;2023-03-01T19:42:36;37.03;;;27.00;;
43700;SDS011;58809;47.984;7.964;2023-03-01T19:45:38;36.20;;;25.38;;
43700;SDS011;58809;47.984;7.964;2023-03-01T19:48:40;33.60;;;25.83;;
43700;SDS011;58809;47.984;7.964;2023-03-01T19:51:41;34.40;;;26.08;;
43700;SDS011;58809;47.984;7.964;2023-03-01T19:54:43;34.35;;;25.65;;
43700;SDS011;58809;47.984;7.964;2023-03-01T19:57:46;39.40;;;26.17;;
43700;SDS011;58809;47.984;7.964;2023-03-01T20:00:47;36.53;;;25.73;;
43700;SDS011;58809;47.984;7.964;2023-03-01T20:03:49;36.00;;;26.63;;
43700;SDS011;58809;47.984;7.964;2023-03-01T20:06:50;34.95;;;27.02;;